sensor_id;sensor_type;location;lat;lon;timestamp;pressure;altitude;pressure_sealevel;temperature;humidity
77723;BME280;67811;42.656;23.394;2023-04-03T00:00:34;94490.34;;;5.45;66.88
77723;BME280;67811;42.656;23.394;2023-04-03T00:03:04;94476.88;;;5.32;67.46
77723;BME280;67811;42.656;23.394;2023-04-03T00:05:35;94477.25;;;5.28;67.38
77723;BME280;67811;42.656;23.394;2023-04-03T00:08:06;94470.53;;;5.18;68.02
77723;BME280;67811;42.656;23.394;2023-04-03T00:10:36;94464.59;;;5.16;68.21
77723;BME280;67811;42.656;23.394;2023-04-03T00:13:09;94466.25;;;5.09;68.52
77723;BME280;67811;42.656;23.394;2023-04-03T00:15:40;94465.28;;;5.10;68.34
77723;BME280;67811;42.656;23.394;2023-04-03T00:18:11;94465.44;;;5.08;68.25
77723;BME280;67811;42.656;23.394;2023-04-03T00:20:41;94452.47;;;5.15;68.25
77723;BME280;67811;42.656;23.394;2023-04-03T00:23:12;94453.94;;;5.17;67.85
77723;BME280;67811;42.656;23.394;2023-04-03T00:25:42;94452.16;;;5.18;68.14
77723;BME280;67811;42.656;23.394;2023-04-03T00:28:15;94455.75;;;5.17;68.09
77723;BME280;67811;42.656;23.394;2023-04-03T00:30:45;94462.16;;;5.22;67.83
77723;BME280;67811;42.656;23.394;2023-04-03T00:33:16;94458.84;;;5.28;67.56
77723;BME280;67811;42.656;23.394;2023-04-03T00:35:47;94461.47;;;5.28;67.88
77723;BME280;67811;42.656;23.394;2023-04-03T00:38:18;94465.91;;;5.28;67.75
77723;BME280;67811;42.656;23.394;2023-04-03T00:40:49;94461.81;;;5.25;67.80
77723;BME280;67811;42.656;23.394;2023-04-03T00:43:23;94463.63;;;5.17;68.16
77723;BME280;67811;42.656;23.394;2023-04-03T00:45:55;94464.47;;;5.17;68.39
77723;BME280;67811;42.656;23.394;2023-04-03T00:48:29;94463.47;;;5.10;68.29
77723;BME280;67811;42.656;23.394;2023-04-03T00:51:01;94459.03;;;4.94;68.89
77723;BME280;67811;42.656;23.394;2023-04-03T00:53:35;94460.22;;;4.84;69.63
77723;BME280;67811;42.656;23.394;2023-04-03T00:56:09;94459.09;;;4.78;69.88
77723;BME280;67811;42.656;23.394;2023-04-03T00:58:44;94459.09;;;4.78;70.21
77723;BME280;67811;42.656;23.394;2023-04-03T01:01:21;94460.56;;;4.72;70.76
77723;BME280;67811;42.656;23.394;2023-04-03T01:03:53;94462.34;;;4.72;70.09
77723;BME280;67811;42.656;23.394;2023-04-03T01:06:26;94455.63;;;4.69;70.21
77723;BME280;67811;42.656;23.394;2023-04-03T01:08:58;94457.28;;;4.79;70.09
77723;BME280;67811;42.656;23.394;2023-04-03T01:11:29;94451.03;;;4.80;70.33
77723;BME280;67811;42.656;23.394;2023-04-03T01:14:01;94465.63;;;4.82;70.51
77723;BME280;67811;42.656;23.394;2023-04-03T01:16:31;94459.56;;;4.90;70.31
77723;BME280;67811;42.656;23.394;2023-04-03T01:19:03;94460.53;;;4.89;70.56
77723;BME280;67811;42.656;23.394;2023-04-03T01:22:03;94465.78;;;4.89;70.21
77723;BME280;67811;42.656;23.394;2023-04-03T01:24:40;94465.78;;;4.81;70.19
77723;BME280;67811;42.656;23.394;2023-04-03T01:27:11;94461.53;;;4.88;70.27
77723;BME280;67811;42.656;23.394;2023-04-03T01:29:43;94459.22;;;5.01;70.15
77723;BME280;67811;42.656;23.394;2023-04-03T01:32:16;94457.41;;;4.93;69.91
77723;BME280;67811;42.656;23.394;2023-04-03T01:34:46;94466.09;;;4.94;69.52
77723;BME280;67811;42.656;23.394;2023-04-03T01:37:17;94464.66;;;4.91;69.80
77723;BME280;67811;42.656;23.394;2023-04-03T01:39:48;94469.41;;;4.80;70.26
77723;BME280;67811;42.656;23.394;2023-04-03T01:42:18;94463.19;;;4.72;70.38
77723;BME280;67811;42.656;23.394;2023-04-03T01:44:49;94468.75;;;4.69;70.95
77723;BME280;67811;42.656;23.394;2023-04-03T01:47:21;94471.69;;;4.66;70.97
77723;BME280;67811;42.656;23.394;2023-04-03T01:49:52;94471.88;;;4.65;70.64
77723;BME280;67811;42.656;23.394;2023-04-03T01:52:22;94475.66;;;4.62;71.35
77723;BME280;67811;42.656;23.394;2023-04-03T01:54:53;94479.88;;;4.55;71.04
77723;BME280;67811;42.656;23.394;2023-04-03T01:57:24;94476.94;;;4.50;71.87
77723;BME280;67811;42.656;23.394;2023-04-03T01:59:55;94475.63;;;4.46;72.05
77723;BME280;67811;42.656;23.394;2023-04-03T02:02:27;94480.22;;;4.52;71.52
77723;BME280;67811;42.656;23.394;2023-04-03T02:04:58;94478.25;;;4.54;72.12
77723;BME280;67811;42.656;23.394;2023-04-03T02:07:28;94473.81;;;4.55;71.83
77723;BME280;67811;42.656;23.394;2023-04-03T02:09:59;94476.94;;;4.58;72.38
77723;BME280;67811;42.656;23.394;2023-04-03T02:12:29;94471.69;;;4.50;71.51
77723;BME280;67811;42.656;23.394;2023-04-03T02:15:00;94483.00;;;4.42;71.82
77723;BME280;67811;42.656;23.394;2023-04-03T02:17:32;94478.56;;;4.35;71.66
77723;BME280;67811;42.656;23.394;2023-04-03T02:20:03;94484.47;;;4.37;71.98
77723;BME280;67811;42.656;23.394;2023-04-03T02:22:34;94482.66;;;4.37;72.55
77723;BME280;67811;42.656;23.394;2023-04-03T02:25:05;94477.41;;;4.37;72.48
77723;BME280;67811;42.656;23.394;2023-04-03T02:27:36;94466.63;;;4.40;71.84
77723;BME280;67811;42.656;23.394;2023-04-03T02:30:07;94464.94;;;4.23;72.51
77723;BME280;67811;42.656;23.394;2023-04-03T02:32:39;94465.56;;;4.17;73.39
77723;BME280;67811;42.656;23.394;2023-04-03T02:35:10;94463.47;;;4.20;72.85
77723;BME280;67811;42.656;23.394;2023-04-03T02:37:41;94459.97;;;4.12;72.86
77723;BME280;67811;42.656;23.394;2023-04-03T02:40:11;94460.78;;;3.96;73.59
77723;BME280;67811;42.656;23.394;2023-04-03T02:42:42;94457.47;;;3.86;73.74
77723;BME280;67811;42.656;23.394;2023-04-03T02:45:12;94469.91;;;3.84;74.08
77723;BME280;67811;42.656;23.394;2023-04-03T02:47:44;94458.78;;;3.82;73.82
77723;BME280;67811;42.656;23.394;2023-04-03T02:50:15;94461.22;;;3.75;74.02
77723;BME280;67811;42.656;23.394;2023-04-03T02:52:46;94460.84;;;3.70;74.47
77723;BME280;67811;42.656;23.394;2023-04-03T02:55:16;94451.16;;;3.62;75.15
77723;BME280;67811;42.656;23.394;2023-04-03T02:57:47;94455.56;;;3.54;75.27
77723;BME280;67811;42.656;23.394;2023-04-03T03:00:18;94449.50;;;3.53;75.34
77723;BME280;67811;42.656;23.394;2023-04-03T03:02:51;94453.09;;;3.52;75.69
77723;BME280;67811;42.656;23.394;2023-04-03T03:05:21;94447.38;;;3.57;75.15
77723;BME280;67811;42.656;23.394;2023-04-03T03:07:52;94442.47;;;3.54;75.49
77723;BME280;67811;42.656;23.394;2023-04-03T03:10:23;94440.28;;;3.41;75.66
77723;BME280;67811;42.656;23.394;2023-04-03T03:12:53;94444.66;;;3.40;76.11
77723;BME280;67811;42.656;23.394;2023-04-03T03:15:24;94443.19;;;3.38;76.01
77723;BME280;67811;42.656;23.394;2023-04-03T03:17:56;94433.88;;;3.35;76.60
77723;BME280;67811;42.656;23.394;2023-04-03T03:20:27;94438.78;;;3.38;76.16
77723;BME280;67811;42.656;23.394;2023-04-03T03:22:57;94439.75;;;3.37;76.52
77723;BME280;67811;42.656;23.394;2023-04-03T03:25:28;94439.75;;;3.37;76.26
77723;BME280;67811;42.656;23.394;2023-04-03T03:27:58;94441.03;;;3.25;76.41
77723;BME280;67811;42.656;23.394;2023-04-03T03:30:29;94430.03;;;3.22;76.53
77723;BME280;67811;42.656;23.394;2023-04-03T03:33:01;94429.38;;;3.20;76.92
77723;BME280;67811;42.656;23.394;2023-04-03T03:35:32;94437.41;;;3.26;76.87
77723;BME280;67811;42.656;23.394;2023-04-03T03:38:03;94434.97;;;3.25;76.75
77723;BME280;67811;42.656;23.394;2023-04-03T03:40:33;94447.25;;;3.24;76.45
77723;BME280;67811;42.656;23.394;2023-04-03T03:43:04;94452.78;;;3.21;76.66
77723;BME280;67811;42.656;23.394;2023-04-03T03:45:34;94451.13;;;3.20;76.97
77723;BME280;67811;42.656;23.394;2023-04-03T03:48:06;94441.16;;;3.24;76.89
77723;BME280;67811;42.656;23.394;2023-04-03T03:50:37;94434.91;;;3.16;77.32
77723;BME280;67811;42.656;23.394;2023-04-03T03:53:08;94432.28;;;3.16;77.06
77723;BME280;67811;42.656;23.394;2023-04-03T03:55:38;94440.81;;;3.18;77.22
77723;BME280;67811;42.656;23.394;2023-04-03T03:58:09;94449.50;;;3.19;77.09
77723;BME280;67811;42.656;23.394;2023-04-03T04:00:39;94454.41;;;3.22;77.01
77723;BME280;67811;42.656;23.394;2023-04-03T04:03:11;94453.75;;;3.20;76.85
77723;BME280;67811;42.656;23.394;2023-04-03T04:05:42;94447.34;;;3.14;77.42
77723;BME280;67811;42.656;23.394;2023-04-03T04:08:13;94447.84;;;3.18;77.41
77723;BME280;67811;42.656;23.394;2023-04-03T04:10:44;94443.38;;;3.10;77.68
77723;BME280;67811;42.656;23.394;2023-04-03T04:13:14;94440.88;;;3.01;78.06
77723;BME280;67811;42.656;23.394;2023-04-03T04:15:45;94444.38;;;3.09;78.05
77723;BME280;67811;42.656;23.394;2023-04-03T04:18:17;94455.81;;;3.08;78.00
77723;BME280;67811;42.656;23.394;2023-04-03T04:20:48;94446.63;;;3.04;78.27
77723;BME280;67811;42.656;23.394;2023-04-03T04:23:18;94450.72;;;3.07;78.61
77723;BME280;67811;42.656;23.394;2023-04-03T04:25:49;94455.50;;;3.11;78.21
77723;BME280;67811;42.656;23.394;2023-04-03T04:28:20;94459.00;;;3.20;78.18
77723;BME280;67811;42.656;23.394;2023-04-03T04:30:50;94453.94;;;3.27;77.60
77723;BME280;67811;42.656;23.394;2023-04-03T04:33:22;94450.53;;;3.34;77.02
77723;BME280;67811;42.656;23.394;2023-04-03T04:35:53;94461.06;;;3.42;77.03
77723;BME280;67811;42.656;23.394;2023-04-03T04:38:24;94461.56;;;3.46;76.67
77723;BME280;67811;42.656;23.394;2023-04-03T04:40:55;94464.03;;;3.48;76.46
77723;BME280;67811;42.656;23.394;2023-04-03T04:43:25;94459.34;;;3.59;75.75
77723;BME280;67811;42.656;23.394;2023-04-03T04:46:03;94462.97;;;3.66;75.06
77723;BME280;67811;42.656;23.394;2023-04-03T04:48:36;94470.63;;;3.60;75.17
77723;BME280;67811;42.656;23.394;2023-04-03T04:51:07;94470.81;;;3.58;75.39
77723;BME280;67811;42.656;23.394;2023-04-03T04:53:37;94470.47;;;3.61;75.02
77723;BME280;67811;42.656;23.394;2023-04-03T04:56:08;94483.75;;;3.68;75.41
77723;BME280;67811;42.656;23.394;2023-04-03T04:58:39;94477.03;;;3.57;75.43
77723;BME280;67811;42.656;23.394;2023-04-03T05:01:10;94482.72;;;3.53;75.79
77723;BME280;67811;42.656;23.394;2023-04-03T05:03:42;94483.75;;;3.60;76.26
77723;BME280;67811;42.656;23.394;2023-04-03T05:06:13;94493.13;;;3.70;75.80
77723;BME280;67811;42.656;23.394;2023-04-03T05:08:44;94502.31;;;3.75;75.43
77723;BME280;67811;42.656;23.394;2023-04-03T05:11:14;94503.63;;;3.79;75.53
77723;BME280;67811;42.656;23.394;2023-04-03T05:13:45;94509.56;;;3.89;75.39
77723;BME280;67811;42.656;23.394;2023-04-03T05:16:16;94509.09;;;3.93;75.25
77723;BME280;67811;42.656;23.394;2023-04-03T05:18:48;94509.13;;;4.02;74.94
77723;BME280;67811;42.656;23.394;2023-04-03T05:21:18;94506.69;;;4.08;74.71
77723;BME280;67811;42.656;23.394;2023-04-03T05:23:49;94504.75;;;4.18;74.61
77723;BME280;67811;42.656;23.394;2023-04-03T05:26:19;94500.19;;;4.37;74.23
77723;BME280;67811;42.656;23.394;2023-04-03T05:28:50;94483.03;;;4.51;73.60
77723;BME280;67811;42.656;23.394;2023-04-03T05:31:21;94486.94;;;4.55;73.13
77723;BME280;67811;42.656;23.394;2023-04-03T05:33:53;94498.09;;;4.65;73.53
77723;BME280;67811;42.656;23.394;2023-04-03T05:36:24;94495.47;;;4.65;72.99
77723;BME280;67811;42.656;23.394;2023-04-03T05:38:55;94485.97;;;4.64;72.74
77723;BME280;67811;42.656;23.394;2023-04-03T05:41:25;94488.44;;;4.65;73.02
77723;BME280;67811;42.656;23.394;2023-04-03T05:43:56;94484.47;;;4.78;72.98
77723;BME280;67811;42.656;23.394;2023-04-03T05:46:26;94485.31;;;4.86;72.41
77723;BME280;67811;42.656;23.394;2023-04-03T05:48:58;94480.69;;;5.05;72.02
77723;BME280;67811;42.656;23.394;2023-04-03T05:51:32;94482.50;;;5.12;72.08
77723;BME280;67811;42.656;23.394;2023-04-03T05:54:09;94488.84;;;5.42;71.29
77723;BME280;67811;42.656;23.394;2023-04-03T05:56:41;94488.00;;;5.58;70.04
77723;BME280;67811;42.656;23.394;2023-04-03T05:59:12;94478.09;;;5.68;69.41
77723;BME280;67811;42.656;23.394;2023-04-03T06:01:43;94478.34;;;5.90;69.62
77723;BME280;67811;42.656;23.394;2023-04-03T06:04:15;94471.06;;;6.08;68.51
77723;BME280;67811;42.656;23.394;2023-04-03T06:06:47;94470.78;;;6.26;68.02
77723;BME280;67811;42.656;23.394;2023-04-03T06:09:20;94468.66;;;6.52;67.24
77723;BME280;67811;42.656;23.394;2023-04-03T06:11:51;94464.91;;;6.70;66.61
77723;BME280;67811;42.656;23.394;2023-04-03T06:14:22;94469.25;;;6.85;66.24
77723;BME280;67811;42.656;23.394;2023-04-03T06:16:53;94465.50;;;7.18;64.89
77723;BME280;67811;42.656;23.394;2023-04-03T06:19:25;94460.09;;;7.34;64.97
77723;BME280;67811;42.656;23.394;2023-04-03T06:21:56;94459.38;;;7.55;63.78
77723;BME280;67811;42.656;23.394;2023-04-03T06:24:27;94457.28;;;7.65;63.73
77723;BME280;67811;42.656;23.394;2023-04-03T06:26:57;94463.28;;;7.44;64.49
77723;BME280;67811;42.656;23.394;2023-04-03T06:29:28;94470.19;;;7.60;64.08
77723;BME280;67811;42.656;23.394;2023-04-03T06:31:59;94477.91;;;7.61;64.01
77723;BME280;67811;42.656;23.394;2023-04-03T06:34:31;94482.03;;;7.64;62.88
77723;BME280;67811;42.656;23.394;2023-04-03T06:37:01;94485.75;;;7.55;63.50
77723;BME280;67811;42.656;23.394;2023-04-03T06:39:32;94491.09;;;7.47;64.79
77723;BME280;67811;42.656;23.394;2023-04-03T06:42:02;94488.72;;;7.37;65.18
77723;BME280;67811;42.656;23.394;2023-04-03T06:44:33;94481.03;;;7.65;65.08
77723;BME280;67811;42.656;23.394;2023-04-03T06:47:04;94482.84;;;7.64;64.44
77723;BME280;67811;42.656;23.394;2023-04-03T06:49:36;94481.31;;;7.18;66.09
77723;BME280;67811;42.656;23.394;2023-04-03T06:52:06;94477.81;;;7.02;66.95
77723;BME280;67811;42.656;23.394;2023-04-03T06:54:38;94478.50;;;7.19;66.48
77723;BME280;67811;42.656;23.394;2023-04-03T06:57:09;94484.03;;;7.47;65.64
77723;BME280;67811;42.656;23.394;2023-04-03T06:59:39;94483.75;;;7.72;65.02
77723;BME280;67811;42.656;23.394;2023-04-03T07:02:11;94481.47;;;7.69;64.54
77723;BME280;67811;42.656;23.394;2023-04-03T07:04:43;94484.38;;;7.74;64.14
77723;BME280;67811;42.656;23.394;2023-04-03T07:07:14;94469.53;;;7.58;65.16
77723;BME280;67811;42.656;23.394;2023-04-03T07:09:44;94481.03;;;7.65;64.56
77723;BME280;67811;42.656;23.394;2023-04-03T07:12:15;94477.91;;;7.91;64.43
77723;BME280;67811;42.656;23.394;2023-04-03T07:14:46;94461.97;;;8.14;63.53
77723;BME280;67811;42.656;23.394;2023-04-03T07:17:16;94457.09;;;8.32;63.25
77723;BME280;67811;42.656;23.394;2023-04-03T07:19:49;94452.50;;;8.56;62.42
77723;BME280;67811;42.656;23.394;2023-04-03T07:22:19;94451.69;;;8.77;61.68
77723;BME280;67811;42.656;23.394;2023-04-03T07:24:50;94458.56;;;8.92;61.39
77723;BME280;67811;42.656;23.394;2023-04-03T07:27:20;94448.38;;;9.17;60.40
77723;BME280;67811;42.656;23.394;2023-04-03T07:29:51;94447.53;;;9.38;60.10
77723;BME280;67811;42.656;23.394;2023-04-03T07:32:21;94461.31;;;9.62;59.01
77723;BME280;67811;42.656;23.394;2023-04-03T07:34:54;94455.06;;;9.69;59.09
77723;BME280;67811;42.656;23.394;2023-04-03T07:37:24;94450.53;;;9.63;58.32
77723;BME280;67811;42.656;23.394;2023-04-03T07:39:55;94456.69;;;9.70;58.09
77723;BME280;67811;42.656;23.394;2023-04-03T07:42:25;94450.50;;;9.91;57.24
77723;BME280;67811;42.656;23.394;2023-04-03T07:44:56;94446.22;;;9.90;57.01
77723;BME280;67811;42.656;23.394;2023-04-03T07:47:27;94438.28;;;9.90;57.31
77723;BME280;67811;42.656;23.394;2023-04-03T07:49:59;94437.16;;;10.19;56.36
77723;BME280;67811;42.656;23.394;2023-04-03T07:52:29;94435.22;;;10.28;56.44
77723;BME280;67811;42.656;23.394;2023-04-03T07:55:00;94435.59;;;10.25;56.51
77723;BME280;67811;42.656;23.394;2023-04-03T07:57:30;94436.41;;;10.32;56.70
77723;BME280;67811;42.656;23.394;2023-04-03T08:00:01;94438.69;;;10.35;57.03
77723;BME280;67811;42.656;23.394;2023-04-03T08:02:32;94433.19;;;10.37;57.32
77723;BME280;67811;42.656;23.394;2023-04-03T08:05:05;94430.38;;;10.51;56.91
77723;BME280;67811;42.656;23.394;2023-04-03T08:07:36;94432.66;;;10.13;57.80
77723;BME280;67811;42.656;23.394;2023-04-03T08:10:08;94431.66;;;10.21;57.34
77723;BME280;67811;42.656;23.394;2023-04-03T08:12:38;94429.94;;;10.41;56.94
77723;BME280;67811;42.656;23.394;2023-04-03T08:15:09;94426.03;;;10.37;57.33
77723;BME280;67811;42.656;23.394;2023-04-03T08:17:40;94424.88;;;10.46;56.97
77723;BME280;67811;42.656;23.394;2023-04-03T08:20:12;94433.63;;;10.60;56.03
77723;BME280;67811;42.656;23.394;2023-04-03T08:22:43;94423.63;;;10.42;57.02
77723;BME280;67811;42.656;23.394;2023-04-03T08:25:13;94416.34;;;10.03;58.29
77723;BME280;67811;42.656;23.394;2023-04-03T08:27:44;94415.03;;;9.79;58.00
77723;BME280;67811;42.656;23.394;2023-04-03T08:30:15;94425.53;;;10.07;58.19
77723;BME280;67811;42.656;23.394;2023-04-03T08:32:45;94419.31;;;10.28;57.32
77723;BME280;67811;42.656;23.394;2023-04-03T08:35:18;94408.53;;;10.29;57.88
77723;BME280;67811;42.656;23.394;2023-04-03T08:37:48;94406.53;;;10.65;56.99
77723;BME280;67811;42.656;23.394;2023-04-03T08:40:19;94402.28;;;10.70;56.80
77723;BME280;67811;42.656;23.394;2023-04-03T08:42:57;94407.22;;;11.00;55.94
77723;BME280;67811;42.656;23.394;2023-04-03T08:45:40;94401.50;;;10.90;55.26
77723;BME280;67811;42.656;23.394;2023-04-03T08:48:15;94394.75;;;11.07;55.25
77723;BME280;67811;42.656;23.394;2023-04-03T08:50:51;94398.63;;;10.78;55.81
77723;BME280;67811;42.656;23.394;2023-04-03T08:53:26;94399.47;;;11.12;55.71
77723;BME280;67811;42.656;23.394;2023-04-03T08:56:00;94397.41;;;10.87;56.02
77723;BME280;67811;42.656;23.394;2023-04-03T08:58:41;94384.78;;;10.89;55.85
77723;BME280;67811;42.656;23.394;2023-04-03T09:01:19;94380.25;;;11.36;54.66
77723;BME280;67811;42.656;23.394;2023-04-03T09:03:50;94376.56;;;11.37;54.35
77723;BME280;67811;42.656;23.394;2023-04-03T09:06:24;94379.03;;;11.39;53.56
77723;BME280;67811;42.656;23.394;2023-04-03T09:09:05;94381.06;;;11.43;54.21
77723;BME280;67811;42.656;23.394;2023-04-03T09:11:44;94369.16;;;11.72;52.52
77723;BME280;67811;42.656;23.394;2023-04-03T09:14:23;94360.13;;;11.86;52.72
77723;BME280;67811;42.656;23.394;2023-04-03T09:16:57;94369.16;;;11.59;53.25
77723;BME280;67811;42.656;23.394;2023-04-03T09:19:36;94364.94;;;11.38;54.19
77723;BME280;67811;42.656;23.394;2023-04-03T09:22:16;94355.09;;;11.65;53.49
77723;BME280;67811;42.656;23.394;2023-04-03T09:24:52;94350.16;;;11.69;53.48
77723;BME280;67811;42.656;23.394;2023-04-03T09:27:24;94349.13;;;11.70;52.82
77723;BME280;67811;42.656;23.394;2023-04-03T09:29:56;94349.88;;;12.03;53.68
77723;BME280;67811;42.656;23.394;2023-04-03T09:32:28;94351.59;;;12.23;51.63
77723;BME280;67811;42.656;23.394;2023-04-03T09:35:02;94345.19;;;12.30;51.53
77723;BME280;67811;42.656;23.394;2023-04-03T09:37:40;94340.16;;;12.22;51.51
77723;BME280;67811;42.656;23.394;2023-04-03T09:40:32;94341.22;;;12.46;50.49
77723;BME280;67811;42.656;23.394;2023-04-03T09:43:22;94346.69;;;12.26;49.84
77723;BME280;67811;42.656;23.394;2023-04-03T09:45:54;94340.50;;;12.32;49.96
77723;BME280;67811;42.656;23.394;2023-04-03T09:48:25;94332.66;;;12.12;51.05
77723;BME280;67811;42.656;23.394;2023-04-03T09:50:58;94331.94;;;11.85;51.49
77723;BME280;67811;42.656;23.394;2023-04-03T09:53:34;94327.25;;;11.88;51.68
77723;BME280;67811;42.656;23.394;2023-04-03T09:56:19;94320.03;;;12.01;51.67
77723;BME280;67811;42.656;23.394;2023-04-03T09:58:52;94327.41;;;11.99;52.11
77723;BME280;67811;42.656;23.394;2023-04-03T10:01:37;94319.72;;;11.78;52.36
77723;BME280;67811;42.656;23.394;2023-04-03T10:04:10;94320.53;;;11.85;51.34
77723;BME280;67811;42.656;23.394;2023-04-03T10:06:42;94323.75;;;11.94;52.00
77723;BME280;67811;42.656;23.394;2023-04-03T10:09:19;94321.75;;;11.89;53.25
77723;BME280;67811;42.656;23.394;2023-04-03T10:12:02;94319.47;;;11.93;52.63
77723;BME280;67811;42.656;23.394;2023-04-03T10:14:35;94320.75;;;11.77;53.71
77723;BME280;67811;42.656;23.394;2023-04-03T10:17:14;94316.06;;;11.72;53.54
77723;BME280;67811;42.656;23.394;2023-04-03T10:19:51;94317.28;;;11.70;53.21
77723;BME280;67811;42.656;23.394;2023-04-03T10:22:31;94311.16;;;11.82;53.35
77723;BME280;67811;42.656;23.394;2023-04-03T10:25:14;94313.59;;;11.77;53.80
77723;BME280;67811;42.656;23.394;2023-04-03T10:27:53;94307.56;;;11.50;53.48
77723;BME280;67811;42.656;23.394;2023-04-03T10:30:34;94308.72;;;11.68;53.85
77723;BME280;67811;42.656;23.394;2023-04-03T10:33:17;94301.34;;;11.76;53.82
77723;BME280;67811;42.656;23.394;2023-04-03T10:35:58;94298.59;;;11.51;53.36
77723;BME280;67811;42.656;23.394;2023-04-03T10:38:42;94290.59;;;11.58;53.86
77723;BME280;67811;42.656;23.394;2023-04-03T10:41:17;94286.66;;;11.74;53.51
77723;BME280;67811;42.656;23.394;2023-04-03T10:43:58;94285.44;;;11.76;53.16
77723;BME280;67811;42.656;23.394;2023-04-03T10:46:36;94279.53;;;11.68;52.71
77723;BME280;67811;42.656;23.394;2023-04-03T10:49:30;94277.69;;;11.68;53.26
77723;BME280;67811;42.656;23.394;2023-04-03T10:52:09;94276.84;;;11.74;52.89
77723;BME280;67811;42.656;23.394;2023-04-03T10:54:45;94283.00;;;11.68;52.99
77723;BME280;67811;42.656;23.394;2023-04-03T10:57:20;94288.03;;;11.38;54.14
77723;BME280;67811;42.656;23.394;2023-04-03T10:59:57;94279.72;;;11.21;55.70
77723;BME280;67811;42.656;23.394;2023-04-03T11:02:30;94296.44;;;11.08;54.92
77723;BME280;67811;42.656;23.394;2023-04-03T11:05:06;94291.81;;;10.71;58.32
77723;BME280;67811;42.656;23.394;2023-04-03T11:07:39;94291.41;;;10.74;60.70
77723;BME280;67811;42.656;23.394;2023-04-03T11:10:13;94293.03;;;10.28;59.81
77723;BME280;67811;42.656;23.394;2023-04-03T11:12:48;94301.34;;;10.12;62.57
77723;BME280;67811;42.656;23.394;2023-04-03T11:15:22;94304.72;;;9.86;63.41
77723;BME280;67811;42.656;23.394;2023-04-03T11:17:56;94307.97;;;9.82;69.89
77723;BME280;67811;42.656;23.394;2023-04-03T11:20:31;94305.72;;;9.79;71.64
77723;BME280;67811;42.656;23.394;2023-04-03T11:23:04;94300.69;;;9.42;68.55
77723;BME280;67811;42.656;23.394;2023-04-03T11:25:37;94303.66;;;9.26;68.78
77723;BME280;67811;42.656;23.394;2023-04-03T11:28:13;94298.00;;;9.29;73.18
77723;BME280;67811;42.656;23.394;2023-04-03T11:30:47;94299.84;;;9.35;75.70
77723;BME280;67811;42.656;23.394;2023-04-03T11:33:32;94295.97;;;9.31;76.48
77723;BME280;67811;42.656;23.394;2023-04-03T11:36:09;94305.59;;;9.11;76.22
77723;BME280;67811;42.656;23.394;2023-04-03T11:38:43;94296.88;;;9.10;80.26
77723;BME280;67811;42.656;23.394;2023-04-03T11:41:15;94296.38;;;8.93;80.28
77723;BME280;67811;42.656;23.394;2023-04-03T11:43:58;94295.41;;;8.73;82.25
77723;BME280;67811;42.656;23.394;2023-04-03T11:46:51;94308.72;;;8.58;80.40
77723;BME280;67811;42.656;23.394;2023-04-03T11:53:01;94308.06;;;8.35;83.36
77723;BME280;67811;42.656;23.394;2023-04-03T11:55:52;94303.88;;;8.40;83.89
77723;BME280;67811;42.656;23.394;2023-04-03T11:58:25;94308.81;;;8.43;84.54
77723;BME280;67811;42.656;23.394;2023-04-03T12:01:03;94308.56;;;8.38;83.24
77723;BME280;67811;42.656;23.394;2023-04-03T12:10:02;94314.81;;;8.16;86.52
77723;BME280;67811;42.656;23.394;2023-04-03T12:12:56;94311.81;;;8.19;87.06
77723;BME280;67811;42.656;23.394;2023-04-03T12:15:52;94312.41;;;8.36;87.56
77723;BME280;67811;42.656;23.394;2023-04-03T12:19:01;94311.72;;;8.34;87.46
77723;BME280;67811;42.656;23.394;2023-04-03T12:24:41;94300.88;;;8.22;86.66
77723;BME280;67811;42.656;23.394;2023-04-03T12:27:33;94299.75;;;8.10;88.13
77723;BME280;67811;42.656;23.394;2023-04-03T12:30:26;94298.22;;;8.01;89.70
77723;BME280;67811;42.656;23.394;2023-04-03T12:33:10;94294.59;;;8.02;89.40
77723;BME280;67811;42.656;23.394;2023-04-03T12:35:56;94283.66;;;8.05;89.88
77723;BME280;67811;42.656;23.394;2023-04-03T12:38:45;94283.09;;;8.09;91.22
77723;BME280;67811;42.656;23.394;2023-04-03T12:41:27;94283.22;;;8.01;91.98
77723;BME280;67811;42.656;23.394;2023-04-03T12:44:27;94274.31;;;8.02;93.25
77723;BME280;67811;42.656;23.394;2023-04-03T12:47:04;94269.84;;;8.03;92.53
77723;BME280;67811;42.656;23.394;2023-04-03T12:49:42;94262.63;;;7.90;94.26
77723;BME280;67811;42.656;23.394;2023-04-03T12:52:22;94254.53;;;7.91;94.36
77723;BME280;67811;42.656;23.394;2023-04-03T12:54:58;94259.66;;;7.78;94.40
77723;BME280;67811;42.656;23.394;2023-04-03T12:57:30;94255.03;;;7.80;94.88
77723;BME280;67811;42.656;23.394;2023-04-03T13:00:19;94255.34;;;7.71;94.29
77723;BME280;67811;42.656;23.394;2023-04-03T13:02:49;94249.88;;;7.72;95.03
77723;BME280;67811;42.656;23.394;2023-04-03T13:05:21;94258.13;;;7.69;94.81
77723;BME280;67811;42.656;23.394;2023-04-03T13:07:58;94259.47;;;7.58;94.51
77723;BME280;67811;42.656;23.394;2023-04-03T13:10:29;94262.81;;;7.52;95.22
77723;BME280;67811;42.656;23.394;2023-04-03T13:13:08;94267.69;;;7.49;96.13
77723;BME280;67811;42.656;23.394;2023-04-03T13:15:44;94255.63;;;7.61;96.09
77723;BME280;67811;42.656;23.394;2023-04-03T13:18:28;94257.66;;;7.59;96.26
77723;BME280;67811;42.656;23.394;2023-04-03T13:21:03;94256.19;;;7.56;96.97
77723;BME280;67811;42.656;23.394;2023-04-03T13:23:38;94250.91;;;7.56;97.40
77723;BME280;67811;42.656;23.394;2023-04-03T13:26:11;94256.38;;;7.55;97.47
77723;BME280;67811;42.656;23.394;2023-04-03T13:28:42;94250.66;;;7.51;98.13
77723;BME280;67811;42.656;23.394;2023-04-03T13:31:19;94246.94;;;7.46;97.37
77723;BME280;67811;42.656;23.394;2023-04-03T13:33:56;94249.97;;;7.43;97.82
77723;BME280;67811;42.656;23.394;2023-04-03T13:36:30;94241.69;;;7.46;97.69
77723;BME280;67811;42.656;23.394;2023-04-03T13:39:05;94244.78;;;7.34;97.09
77723;BME280;67811;42.656;23.394;2023-04-03T13:41:38;94250.44;;;7.31;97.29
77723;BME280;67811;42.656;23.394;2023-04-03T13:44:23;94242.63;;;7.38;97.45